Time;durP1;ratioP1;P1;durP2;ratioP2;P2;SDS_P1;SDS_P2;PMS_P1;PMS_P2;Temp;Humidity;BMP_temperature;BMP_pressure;BME280_temperature;BME280_humidity;BME280_pressure;Samples;Min_cycle;Max_cycle;Signal;HPM_P1;HPM_P2
2022/10/16 00:01:21;;;;;;;0.00;0.00;;;11.10;99.90;;;;;;5047306;28;20037;-80
2022/10/16 00:03:48;;;;;;;0.03;0.03;;;12.10;99.90;;;;;;5047142;28;20552;-80
2022/10/16 00:06:16;;;;;;;1.35;0.65;;;11.20;99.90;;;;;;5046723;28;20057;-81
2022/10/16 00:08:42;;;;;;;0.30;0.30;;;11.20;99.90;;;;;;5046853;28;20435;-79
2022/10/16 00:11:14;;;;;;;4.32;1.88;;;11.20;99.90;;;;;;5047458;28;20053;-80
2022/10/16 00:13:41;;;;;;;0.03;0.03;;;11.10;99.90;;;;;;5047289;28;20107;-78
2022/10/16 00:16:08;;;;;;;1.20;0.57;;;11.10;99.90;;;;;;5047421;28;20152;-79
2022/10/16 00:18:34;;;;;;;0.00;0.00;;;11.10;99.90;;;;;;5047433;28;20558;-78
2022/10/16 00:21:19;;;;;;;0.00;0.00;;;11.10;99.90;;;;;;5047130;28;20095;-78
2022/10/16 00:23:45;;;;;;;0.00;0.00;;;11.10;99.90;;;;;;5028585;28;20053;-79
2022/10/16 00:26:17;;;;;;;0.17;0.10;;;11.00;99.90;;;;;;5046977;28;20052;-80
2022/10/16 00:28:49;;;;;;;0.00;0.00;;;11.00;99.90;;;;;;5046595;28;20044;-81
2022/10/16 00:31:17;;;;;;;0.00;0.00;;;11.00;99.90;;;;;;5046332;28;20593;-79
2022/10/16 00:33:42;;;;;;;22.70;2.28;;;11.00;99.90;;;;;;5046344;28;20044;-81
2022/10/16 00:36:12;;;;;;;1.27;1.17;;;11.10;99.90;;;;;;5046202;28;20118;-80
2022/10/16 00:38:38;;;;;;;1.48;0.88;;;11.10;99.90;;;;;;5046752;28;20088;-80
2022/10/16 00:41:05;;;;;;;0.25;0.03;;;11.20;99.90;;;;;;5046591;28;20136;-80
2022/10/16 00:43:46;;;;;;;0.08;0.05;;;11.20;99.90;;;;;;5046531;28;20045;-80
2022/10/16 00:46:40;;;;;;;0.00;0.00;;;11.30;99.90;;;;;;5046557;28;20411;-81
2022/10/16 00:49:12;;;;;;;1.25;0.35;;;11.30;99.90;;;;;;5046475;28;20056;-80
2022/10/16 00:51:44;;;;;;;0.10;0.10;;;11.40;99.90;;;;;;5046758;28;20129;-80
2022/10/16 00:54:20;;;;;;;0.17;0.17;;;11.30;99.90;;;;;;5046284;28;20911;-79
2022/10/16 00:56:47;;;;;;;0.20;0.00;;;11.40;99.90;;;;;;5046953;28;20693;-80
2022/10/16 00:59:29;;;;;;;0.17;0.13;;;11.40;99.90;;;;;;5046219;28;20495;-80
2022/10/16 01:01:55;;;;;;;0.10;0.10;;;11.40;99.90;;;;;;5046656;28;20061;-79
2022/10/16 01:04:22;;;;;;;0.00;0.00;;;11.40;99.90;;;;;;5046682;28;20060;-80
2022/10/16 01:06:54;;;;;;;0.63;0.63;;;11.40;99.90;;;;;;5046430;28;20417;-79
2022/10/16 01:09:41;;;;;;;0.00;0.00;;;11.40;99.90;;;;;;5046343;28;20053;-79
2022/10/16 01:12:14;;;;;;;0.47;0.22;;;11.40;99.90;;;;;;5046595;28;20080;-79
2022/10/16 01:14:55;;;;;;;0.20;0.10;;;11.40;99.90;;;;;;5046598;28;20052;-79
2022/10/16 01:17:41;;;;;;;0.10;0.10;;;11.40;99.90;;;;;;5046341;28;20111;-80
2022/10/16 01:20:27;;;;;;;0.00;0.00;;;11.50;99.90;;;;;;5049968;28;20057;-80
2022/10/16 01:23:14;;;;;;;0.10;0.10;;;11.40;99.90;;;;;;5049929;28;21235;-80
2022/10/16 01:26:17;;;;;;;0.38;0.30;;;11.50;99.90;;;;;;5050362;28;20056;-81
2022/10/16 01:28:54;;;;;;;0.43;0.40;;;11.50;99.90;;;;;;5050684;28;20048;-82
2022/10/16 01:31:25;;;;;;;0.38;0.38;;;11.20;99.90;;;;;;5050135;28;20057;-81
2022/10/16 01:34:14;;;;;;;0.00;0.00;;;11.60;99.90;;;;;;5050182;28;20123;-81
2022/10/16 01:36:48;;;;;;;0.35;0.35;;;11.50;99.90;;;;;;5050134;28;20061;-80
2022/10/16 01:39:16;;;;;;;0.00;0.00;;;11.50;99.90;;;;;;5050308;28;20029;-81
2022/10/16 01:41:46;;;;;;;0.22;0.17;;;11.60;99.90;;;;;;5049526;28;20110;-81
2022/10/16 01:44:19;;;;;;;0.80;0.80;;;11.60;99.90;;;;;;5049697;28;20052;-80
2022/10/16 01:46:49;;;;;;;0.15;0.13;;;11.70;99.90;;;;;;5048595;28;20376;-81
2022/10/16 01:49:17;;;;;;;0.00;0.00;;;11.60;99.90;;;;;;5049961;28;20053;-82
2022/10/16 01:51:46;;;;;;;0.00;0.00;;;11.60;99.90;;;;;;5049749;28;20072;-82
2022/10/16 01:54:14;;;;;;;0.38;0.17;;;11.60;99.90;;;;;;5049610;28;20049;-81
2022/10/16 01:56:41;;;;;;;0.10;0.10;;;11.70;99.90;;;;;;5049636;28;20049;-81
2022/10/16 01:59:18;;;;;;;0.08;0.05;;;11.60;99.90;;;;;;5049630;28;20136;-81
2022/10/16 02:01:48;;;;;;;0.15;0.10;;;11.60;99.90;;;;;;5049648;28;20061;-82
2022/10/16 02:04:31;;;;;;;0.25;0.05;;;11.50;99.90;;;;;;5048924;28;20080;-81
2022/10/16 02:06:57;;;;;;;0.17;0.10;;;11.50;99.90;;;;;;5049477;28;20056;-82
2022/10/16 02:09:23;;;;;;;0.63;0.30;;;11.60;99.90;;;;;;5049403;28;20052;-82
2022/10/16 02:11:52;;;;;;;0.05;0.05;;;11.70;99.90;;;;;;5049702;28;20095;-79
2022/10/16 02:14:19;;;;;;;0.10;0.10;;;11.70;99.90;;;;;;5049130;28;20053;-79
2022/10/16 02:16:46;;;;;;;3.10;0.65;;;11.60;99.90;;;;;;5049075;28;20501;-81
2022/10/16 02:19:18;;;;;;;0.00;0.00;;;11.60;99.90;;;;;;5049218;28;20616;-79
2022/10/16 02:22:04;;;;;;;0.03;0.03;;;11.60;99.90;;;;;;5049112;28;20426;-81
2022/10/16 02:24:34;;;;;;;0.27;0.27;;;11.60;99.90;;;;;;5048725;28;20067;-81
2022/10/16 02:27:16;;;;;;;0.10;0.05;;;11.80;99.90;;;;;;5049171;28;20053;-79
2022/10/16 02:29:49;;;;;;;1.67;0.25;;;11.80;99.90;;;;;;5049064;28;20059;-80
2022/10/16 02:32:20;;;;;;;0.10;0.10;;;11.90;99.90;;;;;;5049025;28;20048;-80
2022/10/16 02:34:49;;;;;;;0.10;0.10;;;11.90;99.90;;;;;;5050261;28;20048;-80
2022/10/16 02:37:16;;;;;;;0.00;0.00;;;12.10;99.90;;;;;;5068812;28;20040;-82
2022/10/16 02:39:42;;;;;;;1.00;0.43;;;12.10;99.90;;;;;;5068754;28;20048;-79
2022/10/16 02:42:12;;;;;;;0.00;0.00;;;12.10;99.90;;;;;;5068327;28;20059;-80
2022/10/16 02:44:38;;;;;;;0.80;0.22;;;12.60;99.90;;;;;;5068492;28;20490;-80
2022/10/16 02:47:04;;;;;;;0.22;0.20;;;12.20;99.90;;;;;;5068782;28;20091;-80
2022/10/16 02:49:29;;;;;;;0.30;0.25;;;12.20;99.90;;;;;;5069662;28;20047;-80
2022/10/16 02:51:55;;;;;;;0.52;0.50;;;12.20;99.90;;;;;;5069743;28;20049;-80
2022/10/16 02:54:20;;;;;;;0.30;0.30;;;12.30;99.90;;;;;;5071249;28;20053;-81
2022/10/16 02:56:46;;;;;;;1.45;1.35;;;12.40;99.90;;;;;;5083215;28;20108;-78
2022/10/16 02:59:11;;;;;;;0.43;0.30;;;12.30;99.90;;;;;;5069928;28;20049;-80
2022/10/16 03:01:37;;;;;;;0.00;0.00;;;12.40;99.90;;;;;;5068380;28;20169;-80
2022/10/16 03:04:03;;;;;;;0.15;0.08;;;12.40;99.90;;;;;;5067774;28;20041;-80
2022/10/16 03:06:28;;;;;;;0.10;0.00;;;12.40;99.90;;;;;;5068294;28;20047;-80
2022/10/16 03:08:54;;;;;;;0.00;0.00;;;12.40;99.90;;;;;;5068135;28;20058;-82
2022/10/16 03:11:19;;;;;;;0.28;0.28;;;12.40;12.80;;;;;;5068398;28;20098;-81
2022/10/16 03:13:45;;;;;;;1.25;0.60;;;12.40;67.60;;;;;;5068049;28;20501;-81
2022/10/16 03:16:11;;;;;;;0.10;0.10;;;12.50;71.00;;;;;;5055557;28;20041;-80
2022/10/16 03:18:36;;;;;;;0.08;0.05;;;12.50;35.70;;;;;;5047810;28;20052;-80
2022/10/16 03:21:02;;;;;;;0.00;0.00;;;12.40;24.70;;;;;;5047921;28;20379;-81
2022/10/16 03:23:28;;;;;;;0.00;0.00;;;12.40;83.80;;;;;;5047731;28;20057;-81
2022/10/16 03:25:54;;;;;;;0.10;0.08;;;12.30;99.90;;;;;;5047463;28;20503;-81
2022/10/16 03:28:19;;;;;;;0.00;0.00;;;12.40;30.80;;;;;;5059315;28;20062;-81
2022/10/16 03:30:45;;;;;;;0.00;0.00;;;12.40;97.60;;;;;;5067687;28;20080;-80
2022/10/16 03:33:11;;;;;;;0.10;0.10;;;12.20;99.70;;;;;;5057227;28;20076;-81
2022/10/16 03:35:36;;;;;;;0.00;0.00;;;12.20;99.90;;;;;;5047353;28;20156;-80
2022/10/16 03:38:02;;;;;;;0.00;0.00;;;12.20;99.90;;;;;;5047675;28;20061;-82
2022/10/16 03:40:28;;;;;;;0.00;0.00;;;12.20;99.90;;;;;;5047047;28;20059;-81
2022/10/16 03:42:57;;;;;;;0.20;0.20;;;12.20;99.90;;;;;;5045975;28;20125;-81
2022/10/16 03:45:23;;;;;;;0.13;0.13;;;12.20;99.90;;;;;;5047516;28;20114;-80
2022/10/16 03:47:49;;;;;;;0.10;0.10;;;12.20;99.90;;;;;;5047146;28;20041;-81
2022/10/16 03:50:15;;;;;;;0.47;0.47;;;12.20;99.90;;;;;;5047346;28;20106;-81
2022/10/16 03:52:40;;;;;;;0.35;0.35;;;12.20;99.90;;;;;;5047405;28;20045;-81
2022/10/16 03:55:07;;;;;;;0.00;0.00;;;12.10;99.90;;;;;;5049457;28;20395;-81
2022/10/16 03:57:33;;;;;;;0.25;0.25;;;12.10;99.90;;;;;;5067281;28;20063;-79
2022/10/16 03:59:58;;;;;;;0.30;0.22;;;12.10;99.90;;;;;;5066968;28;20040;-80
2022/10/16 04:02:24;;;;;;;0.10;0.10;;;12.00;99.90;;;;;;5066314;28;20052;-82
2022/10/16 04:04:50;;;;;;;2.42;0.55;;;11.90;99.90;;;;;;5066816;28;20119;-80
2022/10/16 04:07:16;;;;;;;4.68;1.35;;;11.90;99.90;;;;;;5067216;28;20059;-80
2022/10/16 04:09:41;;;;;;;0.22;0.20;;;11.90;99.90;;;;;;5066592;28;20113;-81
2022/10/16 04:12:07;;;;;;;0.20;0.20;;;11.90;99.90;;;;;;5067118;28;20170;-80
2022/10/16 04:14:33;;;;;;;0.00;0.00;;;11.80;99.90;;;;;;5066826;28;20049;-80
2022/10/16 04:16:58;;;;;;;4.38;0.63;;;11.70;99.90;;;;;;5066699;28;20113;-80
2022/10/16 04:19:24;;;;;;;0.10;0.10;;;12.20;99.90;;;;;;5066677;28;20056;-81
2022/10/16 04:21:49;;;;;;;0.30;0.30;;;11.90;99.90;;;;;;5067055;28;20080;-80
2022/10/16 04:24:15;;;;;;;0.75;0.32;;;11.90;99.90;;;;;;5066659;28;20048;-80
2022/10/16 04:26:40;;;;;;;0.15;0.10;;;12.10;99.90;;;;;;5066750;28;20059;-79
2022/10/16 04:29:06;;;;;;;0.35;0.28;;;12.00;99.90;;;;;;5066655;28;20037;-80
2022/10/16 04:31:33;;;;;;;0.15;0.15;;;12.00;99.90;;;;;;5066506;28;20106;-80
2022/10/16 04:33:58;;;;;;;0.98;0.75;;;12.00;99.90;;;;;;5065226;28;20491;-81
2022/10/16 04:36:24;;;;;;;0.00;0.00;;;11.90;99.90;;;;;;5066336;28;20056;-82
2022/10/16 04:38:50;;;;;;;0.10;0.10;;;11.90;99.90;;;;;;5066062;28;20056;-80
2022/10/16 04:41:15;;;;;;;1.10;0.15;;;11.90;99.90;;;;;;5066840;28;20052;-81
2022/10/16 04:43:41;;;;;;;0.00;0.00;;;11.90;99.90;;;;;;5066772;28;20120;-80
2022/10/16 04:46:06;;;;;;;0.00;0.00;;;11.80;99.90;;;;;;5066516;28;20114;-81
2022/10/16 04:48:32;;;;;;;0.20;0.20;;;11.90;99.90;;;;;;5066815;28;20052;-82
2022/10/16 04:50:58;;;;;;;0.00;0.00;;;11.90;99.90;;;;;;5066484;28;20403;-81
2022/10/16 04:53:24;;;;;;;0.00;0.00;;;12.00;99.90;;;;;;5069908;28;20102;-79
2022/10/16 04:55:50;;;;;;;0.73;0.63;;;12.00;99.90;;;;;;5069590;28;20410;-81
2022/10/16 04:58:16;;;;;;;0.00;0.00;;;12.00;99.90;;;;;;5068965;28;20044;-80
2022/10/16 05:00:42;;;;;;;0.38;0.32;;;12.10;99.90;;;;;;5070222;28;20399;-81
2022/10/16 05:03:08;;;;;;;1.80;0.10;;;12.20;99.90;;;;;;5070293;28;20098;-81
2022/10/16 05:05:35;;;;;;;0.10;0.10;;;12.20;99.90;;;;;;5070530;28;20063;-81
2022/10/16 05:08:02;;;;;;;0.47;0.22;;;12.30;99.90;;;;;;5070249;28;20048;-80
2022/10/16 05:10:27;;;;;;;0.93;0.20;;;12.20;99.90;;;;;;5059533;28;20044;-80
2022/10/16 05:12:53;;;;;;;0.10;0.05;;;12.30;99.90;;;;;;5050321;28;20045;-81
2022/10/16 05:15:19;;;;;;;0.03;0.03;;;12.30;99.90;;;;;;5050215;28;20052;-81
2022/10/16 05:17:45;;;;;;;0.10;0.10;;;12.30;99.90;;;;;;5055836;28;20033;-81
2022/10/16 05:20:12;;;;;;;0.00;0.00;;;12.30;99.90;;;;;;5069684;28;20091;-79
2022/10/16 05:22:37;;;;;;;2.05;0.30;;;12.40;99.90;;;;;;5069556;28;20427;-80
2022/10/16 05:25:03;;;;;;;0.00;0.00;;;12.30;99.90;;;;;;5070259;28;20124;-80
2022/10/16 05:27:29;;;;;;;0.00;0.00;;;12.30;99.90;;;;;;5069764;28;20052;-81
2022/10/16 05:29:54;;;;;;;0.20;0.15;;;12.30;99.90;;;;;;5069366;28;20053;-80
2022/10/16 05:32:20;;;;;;;0.30;0.30;;;12.30;99.90;;;;;;5069803;28;20056;-80
2022/10/16 05:34:46;;;;;;;0.22;0.22;;;12.40;99.90;;;;;;5067609;28;20142;-81
2022/10/16 05:37:12;;;;;;;0.00;0.00;;;12.40;99.90;;;;;;5047497;28;20048;-80
2022/10/16 05:39:40;;;;;;;0.57;0.22;;;12.40;99.90;;;;;;5063594;28;20047;-81
2022/10/16 05:42:06;;;;;;;0.10;0.10;;;12.40;99.90;;;;;;5064387;28;20118;-81
2022/10/16 05:44:32;;;;;;;1.83;1.05;;;12.50;99.90;;;;;;5063535;28;20037;-81
2022/10/16 05:46:58;;;;;;;0.98;0.57;;;12.40;99.90;;;;;;5049344;28;20132;-81
2022/10/16 05:49:24;;;;;;;0.00;0.00;;;12.40;99.90;;;;;;5063291;28;20148;-81
2022/10/16 05:51:49;;;;;;;0.30;0.30;;;12.40;99.90;;;;;;5064387;28;20060;-80
2022/10/16 05:54:15;;;;;;;0.00;0.00;;;12.40;99.90;;;;;;5063846;28;20044;-81
2022/10/16 05:56:41;;;;;;;0.20;0.20;;;12.50;99.90;;;;;;5063218;28;20051;-81
2022/10/16 05:59:06;;;;;;;12.57;0.40;;;12.50;99.90;;;;;;5047454;28;20045;-81
2022/10/16 06:01:32;;;;;;;0.35;0.35;;;12.50;99.90;;;;;;5043756;28;20064;-80
2022/10/16 06:03:58;;;;;;;0.75;0.22;;;12.40;99.90;;;;;;5043225;28;20041;-81
2022/10/16 06:06:26;;;;;;;0.13;0.13;;;12.40;99.90;;;;;;5051043;28;20051;-81
2022/10/16 06:08:53;;;;;;;0.00;0.00;;;12.40;99.90;;;;;;5068247;28;20522;-80
2022/10/16 06:11:25;;;;;;;1.30;0.38;;;12.40;99.90;;;;;;5064588;28;20048;-80
2022/10/16 06:13:52;;;;;;;0.10;0.10;;;12.50;99.90;;;;;;5063413;28;20060;-80
2022/10/16 06:16:18;;;;;;;2.15;0.43;;;12.50;99.90;;;;;;5062748;28;20746;-80
2022/10/16 06:18:44;;;;;;;0.15;0.13;;;12.40;99.90;;;;;;5062834;28;20044;-81
2022/10/16 06:21:13;;;;;;;0.10;0.00;;;12.50;99.90;;;;;;5063587;28;20044;-81
2022/10/16 06:23:39;;;;;;;0.40;0.20;;;12.50;99.90;;;;;;5063105;28;20053;-81
2022/10/16 06:26:13;;;;;;;0.08;0.08;;;12.50;99.90;;;;;;5063425;28;20055;-81
2022/10/16 06:28:39;;;;;;;0.10;0.10;;;12.60;99.90;;;;;;5054519;28;20499;-82
2022/10/16 06:31:06;;;;;;;0.43;0.43;;;12.40;99.90;;;;;;5042995;28;20452;-80
2022/10/16 06:33:32;;;;;;;0.03;0.03;;;12.80;99.90;;;;;;5043457;28;20049;-81
2022/10/16 06:36:07;;;;;;;0.00;0.00;;;12.30;99.90;;;;;;5047316;28;20053;-81
2022/10/16 06:38:32;;;;;;;0.20;0.20;;;12.30;99.90;;;;;;5055657;28;20052;-80
2022/10/16 06:40:58;;;;;;;0.00;0.00;;;12.30;99.90;;;;;;5042896;28;20106;-81
2022/10/16 06:43:24;;;;;;;0.30;0.30;;;12.30;99.90;;;;;;5043071;28;20055;-81
2022/10/16 06:45:54;;;;;;;0.28;0.28;;;12.40;99.90;;;;;;5042461;28;20045;-81
2022/10/16 06:48:20;;;;;;;0.00;0.00;;;12.40;99.90;;;;;;5041718;28;20403;-81
2022/10/16 06:51:16;;;;;;;0.95;0.85;;;12.50;99.90;;;;;;5043058;28;20136;-81
2022/10/16 06:53:45;;;;;;;0.00;0.00;;;12.60;99.90;;;;;;5028856;28;20049;-81
2022/10/16 06:56:22;;;;;;;0.25;0.20;;;12.70;99.90;;;;;;5046980;28;20043;-80
2022/10/16 06:58:49;;;;;;;0.00;0.00;;;12.90;99.90;;;;;;5048218;28;20467;-80
2022/10/16 07:01:16;;;;;;;0.20;0.20;;;13.00;99.90;;;;;;5042670;28;20052;-80
2022/10/16 07:03:43;;;;;;;2.35;0.40;;;13.00;99.90;;;;;;5042792;28;20048;-79
2022/10/16 07:06:12;;;;;;;0.13;0.10;;;13.10;99.90;;;;;;5045065;28;20044;-81
2022/10/16 07:08:39;;;;;;;0.55;0.43;;;13.20;99.90;;;;;;5053429;28;20064;-81
2022/10/16 07:11:08;;;;;;;0.45;0.45;;;13.20;99.90;;;;;;5042581;28;20052;-77
2022/10/16 07:13:35;;;;;;;5.88;1.48;;;13.30;99.90;;;;;;5039033;28;20051;-80
2022/10/16 07:16:18;;;;;;;1.17;0.80;;;13.30;66.80;;;;;;5043330;28;20045;-79
2022/10/16 07:18:45;;;;;;;0.90;0.65;;;13.40;84.10;;;;;;5079285;28;20036;-79
2022/10/16 07:21:17;;;;;;;0.85;0.75;;;13.40;64.70;;;;;;5076698;28;20040;-78
2022/10/16 07:23:43;;;;;;;0.10;0.10;;;13.50;1.00;;;;;;5072264;28;20527;-78
2022/10/16 07:26:10;;;;;;;0.25;0.17;;;13.60;15.90;;;;;;5080283;28;20036;-78
2022/10/16 07:28:36;;;;;;;0.00;0.00;;;13.60;15.10;;;;;;5077565;28;20051;-78
2022/10/16 07:31:04;;;;;;;0.08;0.05;;;13.80;1.00;;;;;;5081828;28;20528;-79
2022/10/16 07:33:31;;;;;;;0.10;0.10;;;13.90;99.90;;;;;;5081994;28;20092;-80
2022/10/16 07:35:56;;;;;;;0.45;0.40;;;13.90;99.90;;;;;;5082067;28;20044;-80
2022/10/16 07:38:23;;;;;;;0.00;0.00;;;13.90;99.90;;;;;;5062001;28;20582;-80
2022/10/16 07:40:55;;;;;;;0.10;0.10;;;13.80;99.90;;;;;;5061556;28;20052;-80
2022/10/16 07:43:20;;;;;;;0.15;0.15;;;13.80;1.00;;;;;;5061914;28;20345;-80
2022/10/16 07:45:51;;;;;;;0.38;0.28;;;13.70;1.00;;;;;;5053659;28;20036;-81
2022/10/16 07:48:17;;;;;;;1.27;1.17;;;13.70;1.00;;;;;;5049757;28;20041;-80
2022/10/16 07:50:44;;;;;;;0.45;0.35;;;13.60;1.00;;;;;;5047597;28;20032;-79
2022/10/16 07:53:10;;;;;;;0.20;0.10;;;13.60;28.30;;;;;;5053392;28;20123;-80
2022/10/16 07:55:35;;;;;;;0.08;0.08;;;13.60;42.90;;;;;;5061991;28;20055;-80
2022/10/16 07:58:01;;;;;;;0.00;0.00;;;13.70;9.70;;;;;;5043709;28;20044;-80
2022/10/16 08:00:27;;;;;;;0.25;0.22;;;13.80;1.00;;;;;;5041564;28;20066;-80
2022/10/16 08:02:52;;;;;;;0.45;0.30;;;13.90;1.00;;;;;;5041644;28;20881;-79
2022/10/16 08:05:18;;;;;;;0.30;0.20;;;13.80;1.00;;;;;;5042329;28;20037;-81
2022/10/16 08:07:49;;;;;;;1.75;0.90;;;13.70;1.00;;;;;;5042147;28;20052;-81
2022/10/16 08:10:18;;;;;;;0.00;0.00;;;13.70;1.00;;;;;;5060836;28;20094;-80
2022/10/16 08:12:43;;;;;;;0.00;0.00;;;13.60;1.00;;;;;;5062244;28;20102;-79
2022/10/16 08:15:09;;;;;;;0.22;0.20;;;13.70;1.00;;;;;;5062201;28;20040;-80
2022/10/16 08:17:35;;;;;;;0.47;0.10;;;13.70;1.00;;;;;;5061858;28;20044;-81
2022/10/16 08:20:01;;;;;;;0.05;0.05;;;13.80;1.00;;;;;;5062184;28;20174;-81
2022/10/16 08:22:27;;;;;;;0.10;0.10;;;13.80;1.00;;;;;;5061957;28;20080;-80
2022/10/16 08:24:52;;;;;;;0.10;0.10;;;13.80;99.90;;;;;;5058691;28;20534;-80
2022/10/16 08:27:18;;;;;;;1.05;0.68;;;13.90;99.90;;;;;;5055542;28;20147;-80
2022/10/16 08:29:44;;;;;;;0.00;0.00;;;14.00;99.90;;;;;;5052976;28;20107;-79
2022/10/16 08:32:09;;;;;;;0.17;0.17;;;14.10;99.90;;;;;;5042226;28;20098;-81
2022/10/16 08:34:35;;;;;;;0.35;0.22;;;14.00;99.90;;;;;;5075856;28;20496;-79
2022/10/16 08:37:00;;;;;;;0.00;0.00;;;13.90;99.90;;;;;;5081301;28;20447;-79
2022/10/16 08:39:26;;;;;;;1.10;0.52;;;13.90;99.90;;;;;;5080583;28;20110;-81
2022/10/16 08:42:04;;;;;;;0.30;0.20;;;13.80;99.90;;;;;;5082216;28;20452;-79
2022/10/16 08:45:00;;;;;;;0.10;0.10;;;13.90;99.90;;;;;;5080811;28;20119;-78
2022/10/16 08:47:38;;;;;;;0.25;0.22;;;13.90;99.90;;;;;;5041786;28;20049;-81
2022/10/16 08:50:15;;;;;;;0.45;0.20;;;14.50;99.90;;;;;;5041085;28;20053;-80
2022/10/16 08:52:44;;;;;;;1.05;0.45;;;14.20;99.90;;;;;;5042671;28;20490;-79
2022/10/16 08:55:28;;;;;;;0.00;0.00;;;14.10;68.70;;;;;;5077006;28;20159;-80
2022/10/16 08:57:53;;;;;;;0.00;0.00;;;14.20;84.50;;;;;;5079357;28;20441;-81
2022/10/16 09:00:20;;;;;;;0.00;0.00;;;14.20;99.90;;;;;;5080774;28;20040;-80
2022/10/16 09:03:04;;;;;;;2.08;1.23;;;14.30;99.90;;;;;;5079489;28;20040;-79
2022/10/16 09:05:46;;;;;;;1.45;0.35;;;14.30;99.90;;;;;;5077039;28;20413;-77
2022/10/16 09:08:36;;;;;;;0.00;0.00;;;14.30;4.10;;;;;;5072881;28;20111;-77
2022/10/16 09:11:21;;;;;;;0.45;0.35;;;14.40;12.90;;;;;;5085336;28;20051;-79
2022/10/16 09:14:14;;;;;;;3.40;1.00;;;14.50;1.00;;;;;;5071763;28;20075;-79
2022/10/16 09:16:46;;;;;;;0.00;0.00;;;14.50;1.00;;;;;;5081069;28;20131;-79
2022/10/16 09:19:14;;;;;;;3.30;0.10;;;14.70;1.00;;;;;;5057637;28;20509;-79
2022/10/16 09:21:45;;;;;;;0.00;0.00;;;14.90;1.00;;;;;;5052623;28;20408;-81
2022/10/16 09:24:14;;;;;;;0.00;0.00;;;15.00;99.90;;;;;;5051018;28;20391;-83
2022/10/16 09:26:40;;;;;;;0.00;0.00;;;15.40;99.90;;;;;;5065519;28;20545;-79
2022/10/16 09:29:06;;;;;;;0.00;0.00;;;15.00;99.90;;;;;;5056594;28;20045;-78
2022/10/16 09:31:31;;;;;;;0.52;0.45;;;15.00;99.90;;;;;;5046193;28;20108;-78
2022/10/16 09:34:06;;;;;;;0.00;0.00;;;15.10;54.20;;;;;;5046037;28;20128;-78
2022/10/16 09:36:40;;;;;;;0.43;0.30;;;15.00;1.00;;;;;;5049597;28;20052;-78
2022/10/16 09:39:11;;;;;;;2.85;0.32;;;15.00;88.30;;;;;;5059921;28;20289;-76
2022/10/16 09:41:44;;;;;;;1.08;0.47;;;15.20;99.90;;;;;;5064059;28;20048;-77
2022/10/16 09:44:27;;;;;;;0.10;0.10;;;15.40;99.90;;;;;;5064030;28;20048;-81
2022/10/16 09:47:14;;;;;;;0.17;0.17;;;15.40;99.90;;;;;;5064182;28;20078;-81
2022/10/16 09:49:49;;;;;;;;;;;15.60;99.90;;;;;;5065105;28;20072;-77
2022/10/16 09:52:16;;;;;;;0.73;0.47;;;15.70;99.90;;;;;;5045380;28;20175;-78
2022/10/16 09:54:56;;;;;;;1.25;1.13;;;16.10;1.00;;;;;;5043922;28;20052;-78
2022/10/16 09:57:22;;;;;;;11.85;0.85;;;16.30;99.90;;;;;;5045816;28;20118;-78
2022/10/16 09:59:58;;;;;;;0.47;0.47;;;16.40;99.90;;;;;;5049102;28;20049;-77
2022/10/16 10:02:38;;;;;;;0.75;0.30;;;16.50;99.90;;;;;;5048034;28;20072;-76
2022/10/16 10:05:13;;;;;;;0.00;0.00;;;16.50;99.90;;;;;;5058401;28;20057;-78
2022/10/16 10:07:44;;;;;;;0.00;0.00;;;16.60;99.90;;;;;;5055449;28;20061;-79
2022/10/16 10:10:25;;;;;;;0.28;0.22;;;16.60;1.00;;;;;;5045075;28;20053;-79
2022/10/16 10:12:51;;;;;;;0.38;0.38;;;16.50;99.90;;;;;;5044540;28;20053;-79
2022/10/16 10:15:22;;;;;;;0.08;0.08;;;16.50;99.90;;;;;;5057127;28;20090;-77
2022/10/16 10:17:48;;;;;;;1.23;0.52;;;16.60;99.90;;;;;;5063949;28;20052;-78
2022/10/16 10:20:27;;;;;;;0.75;0.70;;;16.60;99.90;;;;;;5056373;28;20044;-78
2022/10/16 10:22:53;;;;;;;0.00;0.00;;;16.90;99.90;;;;;;5049327;28;20057;-77
2022/10/16 10:25:47;;;;;;;0.20;0.20;;;17.10;99.90;;;;;;5058317;28;20040;-77
2022/10/16 10:28:24;;;;;;;0.60;0.10;;;17.40;99.90;;;;;;5060064;28;20056;-78
2022/10/16 10:31:01;;;;;;;0.10;0.10;;;17.80;19.30;;;;;;5046262;28;20061;-81
2022/10/16 10:33:44;;;;;;;1.35;0.25;;;18.00;87.20;;;;;;5043637;28;20415;-78
2022/10/16 10:36:27;;;;;;;0.30;0.28;;;18.10;99.90;;;;;;5058758;28;20092;-77
2022/10/16 10:38:56;;;;;;;4.38;0.70;;;18.20;1.00;;;;;;5064297;28;20233;-78
2022/10/16 10:41:25;;;;;;;0.20;0.20;;;18.10;1.00;;;;;;5063880;28;20048;-77
2022/10/16 10:44:00;;;;;;;0.65;0.55;;;18.20;1.00;;;;;;5063410;28;20048;-78
2022/10/16 10:46:34;;;;;;;0.95;0.65;;;18.40;79.40;;;;;;5062499;28;20048;-78
2022/10/16 10:49:44;;;;;;;1.23;0.88;;;18.00;99.90;;;;;;5067514;28;20052;-77
2022/10/16 10:52:13;;;;;;;1.05;0.17;;;17.70;99.90;;;;;;5063811;28;20569;-76
2022/10/16 10:55:16;;;;;;;1.90;0.65;;;17.40;1.00;;;;;;5067969;28;20045;-76
2022/10/16 10:58:11;;;;;;;0.10;0.10;;;17.40;1.60;;;;;;5054843;28;20434;-76
2022/10/16 11:01:03;;;;;;;0.05;0.05;;;17.50;99.90;;;;;;5058056;28;20064;-77
2022/10/16 11:03:52;;;;;;;0.52;0.43;;;17.80;99.90;;;;;;5043032;28;20214;-77
2022/10/16 11:06:36;;;;;;;0.88;0.82;;;18.20;99.90;;;;;;5043809;28;20170;-78
2022/10/16 11:09:15;;;;;;;1.80;1.02;;;18.30;99.90;;;;;;5043488;28;20052;-78
2022/10/16 11:11:48;;;;;;;1.55;1.13;;;18.20;99.90;;;;;;5043278;28;20045;-78
2022/10/16 11:14:24;;;;;;;14.45;1.35;;;18.20;99.90;;;;;;5045845;28;20067;-75
2022/10/16 11:17:16;;;;;;;0.98;0.60;;;18.10;99.90;;;;;;5083303;28;20036;-78
2022/10/16 11:19:50;;;;;;;0.03;0.03;;;17.80;99.90;;;;;;5073720;28;20041;-77
2022/10/16 11:22:22;;;;;;;0.63;0.45;;;17.70;99.90;;;;;;5063348;28;20047;-78
2022/10/16 11:24:58;;;;;;;0.30;0.30;;;17.80;1.00;;;;;;5043294;28;20088;-76
2022/10/16 11:27:39;;;;;;;0.38;0.38;;;17.90;99.90;;;;;;5048785;28;20080;-77
2022/10/16 11:30:21;;;;;;;2.72;0.63;;;18.40;99.90;;;;;;5063108;28;20059;-77
2022/10/16 11:32:59;;;;;;;0.28;0.28;;;18.90;69.60;;;;;;5062822;28;20076;-77
2022/10/16 11:35:42;;;;;;;0.00;0.00;;;18.90;99.90;;;;;;5049556;28;20061;-77
2022/10/16 11:38:27;;;;;;;3.83;0.70;;;18.80;29.90;;;;;;5062909;28;20127;-77
2022/10/16 11:40:57;;;;;;;1.42;0.57;;;18.50;1.00;;;;;;5062406;28;20047;-77
2022/10/16 11:43:38;;;;;;;0.43;0.35;;;18.40;1.00;;;;;;5063090;28;20590;-77
2022/10/16 11:46:12;;;;;;;0.30;0.30;;;18.50;1.00;;;;;;5060528;28;20037;-77
2022/10/16 11:48:51;;;;;;;0.00;0.00;;;18.70;81.60;;;;;;5042201;28;20044;-77
2022/10/16 11:51:43;;;;;;;2.97;1.52;;;18.90;39.00;;;;;;5042515;28;20128;-77
2022/10/16 11:54:24;;;;;;;0.13;0.13;;;19.10;1.00;;;;;;5042391;28;20080;-77
2022/10/16 11:56:54;;;;;;;0.22;0.22;;;19.50;99.90;;;;;;5041998;28;20471;-77
2022/10/16 11:59:52;;;;;;;0.35;0.13;;;19.40;99.90;;;;;;5042900;28;20499;-76
2022/10/16 12:02:37;;;;;;;0.22;0.22;;;19.60;1.00;;;;;;5058369;28;20045;-77
2022/10/16 12:05:32;;;;;;;0.43;0.32;;;19.70;99.90;;;;;;5062606;28;20053;-77
2022/10/16 12:08:09;;;;;;;0.17;0.15;;;19.90;1.00;;;;;;5068288;28;20048;-74
2022/10/16 12:10:38;;;;;;;0.05;0.05;;;20.20;99.90;;;;;;5066842;28;20063;-78
2022/10/16 12:13:28;;;;;;;0.47;0.40;;;20.00;99.90;;;;;;5067064;28;20089;-75
2022/10/16 12:16:04;;;;;;;0.03;0.03;;;20.10;99.90;;;;;;5059270;28;20116;-76
2022/10/16 12:18:30;;;;;;;1.45;0.65;;;20.20;99.90;;;;;;5063130;28;20056;-76
2022/10/16 12:21:15;;;;;;;0.28;0.15;;;19.80;99.90;;;;;;5051058;28;20040;-77
2022/10/16 12:23:52;;;;;;;2.33;0.13;;;19.70;99.90;;;;;;5044183;28;20076;-76
2022/10/16 12:26:44;;;;;;;0.75;0.63;;;19.60;41.60;;;;;;5043488;28;20466;-76
2022/10/16 12:29:34;;;;;;;0.15;0.15;;;19.50;1.00;;;;;;5048924;28;20060;-77
2022/10/16 12:32:00;;;;;;;2.80;0.77;;;19.80;1.00;;;;;;5031779;28;20059;-76
2022/10/16 12:34:45;;;;;;;0.17;0.17;;;20.10;1.00;;;;;;5043108;28;20179;-76
2022/10/16 12:37:26;;;;;;;0.00;0.00;;;20.50;1.00;;;;;;5053296;28;20132;-76
2022/10/16 12:39:54;;;;;;;0.70;0.40;;;20.90;1.00;;;;;;5070047;28;20055;-76
2022/10/16 12:42:26;;;;;;;0.00;0.00;;;21.10;99.90;;;;;;5062347;28;20461;-76
2022/10/16 12:44:52;;;;;;;0.00;0.00;;;21.30;1.00;;;;;;5064336;28;20913;-76
2022/10/16 12:47:35;;;;;;;0.52;0.47;;;21.50;99.90;;;;;;5051588;28;20056;-78
2022/10/16 12:50:01;;;;;;;0.15;0.10;;;21.40;99.90;;;;;;5045586;28;20519;-76
2022/10/16 12:52:38;;;;;;;0.13;0.13;;;21.40;99.90;;;;;;5063464;28;20050;-78
2022/10/16 12:55:12;;;;;;;0.63;0.50;;;21.70;99.90;;;;;;5063789;28;20040;-76
2022/10/16 12:57:55;;;;;;;7.75;0.93;;;21.40;99.90;;;;;;5063060;28;20440;-75
2022/10/16 13:00:34;;;;;;;7.68;0.85;;;21.30;99.90;;;;;;5059492;28;20045;-75
2022/10/16 13:03:19;;;;;;;1.08;0.52;;;21.50;99.90;;;;;;5043686;28;20124;-76
2022/10/16 13:06:05;;;;;;;5.25;1.45;;;21.30;99.90;;;;;;5043651;28;20049;-77
2022/10/16 13:08:43;;;;;;;0.68;0.47;;;21.30;99.20;;;;;;5043611;28;20087;-76
2022/10/16 13:11:29;;;;;;;1.90;0.45;;;21.60;99.90;;;;;;5051803;28;20071;-77